createdAt,value
2023-02-04T01:31:12.170Z,99626.96
2023-02-04T01:34:14.110Z,99624.92
2023-02-04T01:37:16.032Z,99624.54
2023-02-04T01:40:18.040Z,99626.25
2023-02-04T01:43:20.084Z,99625.61
2023-02-04T01:46:24.253Z,99626.73
2023-02-04T01:49:26.059Z,99630.05
2023-02-04T01:52:28.055Z,99624.92
2023-02-04T01:55:32.285Z,99622.12
2023-02-04T01:58:35.056Z,99622.41
2023-02-04T02:01:57.132Z,99628.44
2023-02-04T02:04:59.117Z,99624.23
2023-02-04T02:08:05.095Z,99623.60
2023-02-04T02:11:07.104Z,99619.16
2023-02-04T02:14:09.107Z,99618.31
2023-02-04T02:17:11.180Z,99620.02
2023-02-04T02:20:13.323Z,99621.95
2023-02-04T02:23:32.358Z,99625.64
2023-02-04T02:26:34.160Z,99626.04
2023-02-04T02:29:36.113Z,99626.32
2023-02-04T02:32:38.133Z,99629.73
2023-02-04T02:35:42.567Z,99627.58
2023-02-04T02:38:46.704Z,99626.41
2023-02-04T02:41:49.177Z,99631.98
2023-02-04T02:44:52.172Z,99629.48
2023-02-04T02:47:55.141Z,99633.48
2023-02-04T02:50:58.204Z,99635.81
2023-02-04T02:54:00.191Z,99632.64
2023-02-04T02:57:02.197Z,99631.02
2023-02-04T03:00:05.174Z,99628.48
2023-02-04T03:03:15.216Z,99631.75
2023-02-04T03:06:37.228Z,99637.02
2023-02-04T03:09:39.168Z,99639.02
2023-02-04T03:12:41.167Z,99639.67
2023-02-04T03:15:43.256Z,99641.73
2023-02-04T03:18:45.241Z,99646.46
2023-02-04T03:21:48.206Z,99645.65
2023-02-04T03:24:50.343Z,99645.48
2023-02-04T03:27:53.260Z,99650.98
2023-02-04T03:31:02.650Z,99650.80
2023-02-04T03:34:05.440Z,99648.08
2023-02-04T03:37:08.257Z,99649.80
2023-02-04T03:40:10.284Z,99650.94
2023-02-04T03:43:13.301Z,99652.33
2023-02-04T03:46:08.294Z,99652.96
2023-02-04T03:49:10.436Z,99650.48
2023-02-04T03:52:13.249Z,99653.33
2023-02-04T03:55:17.248Z,99653.66
2023-02-04T03:58:20.295Z,99652.48
2023-02-04T04:01:22.290Z,99652.73
2023-02-04T04:04:24.533Z,99653.07
2023-02-04T04:07:27.454Z,99656.38
2023-02-04T04:10:31.571Z,99658.64
2023-02-04T04:13:34.407Z,99661.16
2023-02-04T04:16:38.591Z,99663.63
2023-02-04T04:19:43.325Z,99666.89
2023-02-04T04:22:49.291Z,99670.80
2023-02-04T04:25:51.321Z,99670.25
2023-02-04T04:28:55.320Z,99672.14
2023-02-04T04:31:58.425Z,99670.18
2023-02-04T04:35:00.430Z,99676.27
2023-02-04T04:38:02.348Z,99677.14
2023-02-04T04:41:04.308Z,99676.35
2023-02-04T04:44:06.352Z,99680.36
2023-02-04T04:47:08.773Z,99686.79
2023-02-04T04:50:10.345Z,99689.40
2023-02-04T04:53:14.682Z,99688.84
2023-02-04T04:56:16.703Z,99687.18
2023-02-04T04:59:18.402Z,99695.58
2023-02-04T05:02:20.390Z,99697.17
2023-02-04T05:05:22.369Z,99696.11
2023-02-04T05:08:25.462Z,99703.41
2023-02-04T05:11:28.508Z,99703.21
2023-02-04T05:14:31.409Z,99704.34
2023-02-04T05:17:33.417Z,99705.77
2023-02-04T05:20:35.470Z,99710.12
2023-02-04T05:23:37.457Z,99722.45
2023-02-04T05:26:39.372Z,99723.85
2023-02-04T05:29:42.399Z,99728.46
2023-02-04T05:32:44.516Z,99726.60
2023-02-04T05:35:49.891Z,99737.27
2023-02-04T05:38:54.540Z,99739.36
2023-02-04T05:41:57.411Z,99744.80
2023-02-04T05:44:59.519Z,99749.06
2023-02-04T05:48:01.452Z,99753.17
2023-02-04T05:51:04.495Z,99753.63
2023-02-04T05:54:07.543Z,99758.45
2023-02-04T05:57:10.491Z,99765.64
2023-02-04T06:00:13.193Z,99767.11
2023-02-04T06:03:15.464Z,99777.48
2023-02-04T06:06:18.518Z,99775.88
2023-02-04T06:09:20.581Z,99780.23
2023-02-04T06:12:22.527Z,99780.06
2023-02-04T06:15:24.468Z,99781.08
2023-02-04T06:18:29.518Z,99781.13
2023-02-04T06:21:31.487Z,99784.81
2023-02-04T06:24:36.956Z,99787.67
2023-02-04T06:27:38.573Z,99789.00
2023-02-04T06:30:40.582Z,99789.27
2023-02-04T06:33:46.596Z,99793.09
2023-02-04T06:36:53.585Z,99798.61
2023-02-04T06:39:55.529Z,99799.30
2023-02-04T06:42:57.589Z,99802.94
2023-02-04T06:46:04.585Z,99805.25
2023-02-04T06:49:07.599Z,99811.17
2023-02-04T06:52:11.998Z,99811.93
2023-02-04T06:55:13.564Z,99817.55
2023-02-04T06:58:17.526Z,99823.66
2023-02-04T07:01:20.429Z,99825.33
2023-02-04T07:04:22.982Z,99827.45
2023-02-04T07:07:26.876Z,99831.30
2023-02-04T07:10:28.580Z,99827.14
2023-02-04T07:13:40.587Z,99829.89
2023-02-04T07:16:42.568Z,99829.07
2023-02-04T07:19:45.600Z,99837.41
2023-02-04T07:22:47.685Z,99842.47
2023-02-04T07:25:50.603Z,99843.02
2023-02-04T07:28:53.578Z,99837.25
2023-02-04T07:31:57.827Z,99839.80
2023-02-04T07:34:59.594Z,99844.07
2023-02-04T07:38:04.928Z,99842.44
2023-02-04T07:41:07.648Z,99842.16
2023-02-04T07:44:09.655Z,99843.02
2023-02-04T07:47:30.160Z,99843.63
2023-02-04T07:50:37.651Z,99847.14
2023-02-04T07:53:44.530Z,99848.54
2023-02-04T07:56:47.740Z,99855.39
2023-02-04T07:59:51.756Z,99852.15
2023-02-04T08:02:58.067Z,99855.24
2023-02-04T08:06:09.845Z,99859.65
2023-02-04T08:09:15.758Z,99864.64
2023-02-04T08:12:20.652Z,99864.09
2023-02-04T08:15:22.727Z,99866.55
2023-02-04T08:18:37.879Z,99868.07
2023-02-04T08:21:42.169Z,99872.10
2023-02-04T08:24:44.933Z,99873.70
2023-02-04T08:27:51.826Z,99876.84
2023-02-04T08:31:21.797Z,99881.66
2023-02-04T08:34:30.041Z,99886.36
2023-02-04T08:37:37.307Z,99886.80
2023-02-04T08:40:39.759Z,99896.27
2023-02-04T08:43:42.703Z,99902.90
2023-02-04T08:46:46.824Z,99904.86
2023-02-04T08:49:49.720Z,99907.88
2023-02-04T08:52:57.764Z,99909.95
2023-02-04T08:55:59.866Z,99911.60
2023-02-04T08:59:02.755Z,99917.65
2023-02-04T09:02:10.871Z,99919.95
2023-02-04T09:05:15.561Z,99917.28
2023-02-04T09:08:16.802Z,99922.11
2023-02-04T09:11:18.801Z,99918.54
2023-02-04T09:14:22.874Z,99919.20
2023-02-04T09:17:24.783Z,99919.88
2023-02-04T09:20:31.089Z,99916.63
2023-02-04T09:23:33.832Z,99915.73
2023-02-04T09:26:35.938Z,99921.42
2023-02-04T09:29:37.840Z,99919.96
2023-02-04T09:32:41.833Z,99916.43
2023-02-04T09:35:43.861Z,99917.33
2023-02-04T09:38:45.962Z,99916.59
2023-02-04T09:41:47.995Z,99911.94
2023-02-04T09:44:50.876Z,99915.06
2023-02-04T09:47:52.878Z,99917.21
2023-02-04T09:50:54.889Z,99919.08
2023-02-04T09:53:56.926Z,99922.98
2023-02-04T09:56:59.060Z,99925.20
2023-02-04T10:00:00.878Z,99927.32
2023-02-04T10:03:03.969Z,99928.34
2023-02-04T10:06:07.131Z,99924.79
2023-02-04T10:09:09.836Z,99924.98
2023-02-04T10:12:11.913Z,99923.73
2023-02-04T10:15:17.878Z,99930.83
2023-02-04T10:18:20.802Z,99934.59
2023-02-04T10:21:34.912Z,99938.52
2023-02-04T10:24:37.893Z,99944.63
2023-02-04T10:27:40.995Z,99946.19
2023-02-04T10:30:44.935Z,99949.95
2023-02-04T10:33:47.918Z,99953.15
2023-02-04T10:36:50.956Z,99955.66
2023-02-04T10:39:58.978Z,99957.39
2023-02-04T10:43:02.932Z,99965.38
2023-02-04T10:46:10.940Z,99968.42
2023-02-04T10:49:14.699Z,99970.27
2023-02-04T10:52:17.013Z,99975.14
2023-02-04T10:55:20.989Z,99981.63
2023-02-04T10:58:27.041Z,99988.06
2023-02-04T11:01:28.990Z,99989.96
2023-02-04T11:04:31.019Z,99995.99
2023-02-04T11:07:33.055Z,100000.33
2023-02-04T11:10:39.534Z,100000.62
2023-02-04T11:13:52.991Z,100006.17
2023-02-04T11:17:05.086Z,100004.12
2023-02-04T11:20:06.962Z,100013.30
2023-02-04T11:23:09.998Z,100011.56
2023-02-04T11:26:21.045Z,100008.47
2023-02-04T11:29:30.250Z,100012.57
2023-02-04T11:32:43.083Z,100013.67
2023-02-04T11:35:46.694Z,100012.77
2023-02-04T11:38:51.050Z,100018.74
2023-02-04T11:41:58.072Z,100018.84
2023-02-04T11:45:13.116Z,100019.11
2023-02-04T11:48:18.136Z,100020.95
2023-02-04T11:51:27.005Z,100019.79
2023-02-04T11:54:31.123Z,100020.65
2023-02-04T11:57:35.506Z,100025.30
2023-02-04T12:00:41.040Z,100034.14
2023-02-04T12:03:41.118Z,100038.24
2023-02-04T12:06:47.094Z,100042.74
2023-02-04T12:10:15.709Z,100049.86
2023-02-04T12:13:30.257Z,100047.05
2023-02-04T12:16:34.089Z,100051.58
2023-02-04T12:19:39.157Z,100053.29
2023-02-04T12:22:41.129Z,100056.68
2023-02-04T12:25:43.047Z,100057.17
2023-02-04T12:28:45.126Z,100061.57
2023-02-04T12:31:47.182Z,100065.29
2023-02-04T12:34:50.128Z,100068.59
2023-02-04T12:37:54.068Z,100067.79
2023-02-04T12:40:59.137Z,100074.70
2023-02-04T12:44:02.086Z,100076.98
2023-02-04T12:47:04.201Z,100075.55
2023-02-04T12:50:06.160Z,100071.80
2023-02-04T12:53:11.124Z,100079.87
2023-02-04T12:56:13.194Z,100081.42
2023-02-04T12:59:08.218Z,100087.21
2023-02-04T13:02:10.230Z,100087.50
2023-02-04T13:05:15.245Z,100090.73
2023-02-04T13:08:10.186Z,100092.83
2023-02-04T13:11:12.208Z,100096.73
2023-02-04T13:14:15.214Z,100103.25
2023-02-04T13:17:17.315Z,100103.91
2023-02-04T13:20:19.189Z,100107.91
2023-02-04T13:23:21.195Z,100110.18
2023-02-04T13:26:23.211Z,100109.49
2023-02-04T13:29:25.182Z,100110.65
2023-02-04T13:32:27.219Z,100114.19
2023-02-04T13:35:30.471Z,100118.57
2023-02-04T13:38:33.307Z,100128.36
2023-02-04T13:41:36.241Z,100136.64
2023-02-04T13:44:38.406Z,100141.82
2023-02-04T13:47:40.306Z,100148.09
2023-02-04T13:50:42.255Z,100149.95
2023-02-04T13:53:44.249Z,100148.86
2023-02-04T13:56:47.258Z,100159.55
2023-02-04T13:59:49.255Z,100161.02
2023-02-04T14:02:51.248Z,100156.29
2023-02-04T14:05:56.269Z,100160.52
2023-02-04T14:08:58.269Z,100165.44
2023-02-04T14:11:53.344Z,100163.52
2023-02-04T14:14:55.241Z,100164.34
2023-02-04T14:17:57.332Z,100167.08
2023-02-04T14:21:00.286Z,100173.46
2023-02-04T14:24:02.300Z,100180.85
2023-02-04T14:27:04.340Z,100190.13
2023-02-04T14:30:07.400Z,100193.05
2023-02-04T14:33:09.321Z,100194.66
2023-02-04T14:36:11.286Z,100199.73
2023-02-04T14:39:13.525Z,100203.15
2023-02-04T14:42:15.320Z,100212.23
2023-02-04T14:45:22.372Z,100208.20
2023-02-04T14:48:24.356Z,100214.30
2023-02-04T14:51:26.372Z,100217.42
2023-02-04T14:54:28.379Z,100223.88
2023-02-04T14:57:31.323Z,100222.05
2023-02-04T15:00:33.797Z,100226.14
2023-02-04T15:03:38.689Z,100229.94
2023-02-04T15:06:42.699Z,100237.73
2023-02-04T15:09:45.392Z,100242.38
2023-02-04T15:12:47.402Z,100246.75
2023-02-04T15:15:51.374Z,100253.84
2023-02-04T15:18:53.422Z,100253.05
2023-02-04T15:21:55.400Z,100255.02
2023-02-04T15:24:57.407Z,100255.77
2023-02-04T15:27:59.407Z,100263.34
2023-02-04T15:31:01.517Z,100270.67
2023-02-04T15:34:04.753Z,100270.63
2023-02-04T15:37:07.450Z,100277.86
2023-02-04T15:43:28.424Z,100285.16
2023-02-04T15:46:30.418Z,100288.52
2023-02-04T15:49:25.444Z,100295.13
2023-02-04T15:52:24.155Z,100294.48
2023-02-04T15:55:27.433Z,100295.59
2023-02-04T15:58:29.444Z,100298.58
2023-02-04T16:01:31.440Z,100302.48
2023-02-04T16:04:33.476Z,100304.77
2023-02-04T16:07:35.437Z,100305.81
2023-02-04T16:10:37.558Z,100308.05
2023-02-04T16:13:39.496Z,100310.45
2023-02-04T16:16:41.486Z,100317.85
2023-02-04T16:19:43.488Z,100315.98
2023-02-04T16:22:45.518Z,100325.03
2023-02-04T16:25:48.504Z,100329.33
2023-02-04T16:28:53.490Z,100332.85
2023-02-04T16:31:56.606Z,100333.65
2023-02-04T16:34:59.493Z,100338.60
2023-02-04T16:38:03.050Z,100343.98
2023-02-04T16:41:05.614Z,100339.45
2023-02-04T16:44:07.580Z,100340.39
2023-02-04T16:47:14.272Z,100343.89
2023-02-04T16:50:17.661Z,100340.49
2023-02-04T16:53:22.591Z,100335.33
2023-02-04T16:56:18.591Z,100340.19
2023-02-04T16:59:22.716Z,100338.95
2023-02-04T17:02:27.641Z,100347.17
2023-02-04T17:05:31.809Z,100348.80
2023-02-04T17:08:33.565Z,100348.33
2023-02-04T17:11:38.588Z,100350.55
2023-02-04T17:14:41.578Z,100354.23
2023-02-04T17:17:45.556Z,100353.85
2023-02-04T17:20:50.212Z,100349.60
2023-02-04T17:23:57.663Z,100351.29
2023-02-04T17:26:54.017Z,100353.79
2023-02-04T17:29:42.602Z,100356.41
2023-02-04T17:32:45.583Z,100356.98
2023-02-04T17:35:47.665Z,100358.25
2023-02-04T17:38:52.735Z,100360.46
2023-02-04T17:41:54.825Z,100368.02
2023-02-04T17:45:01.714Z,100368.45
2023-02-04T17:48:07.718Z,100368.19
2023-02-04T17:51:09.648Z,100371.85
2023-02-04T17:54:14.701Z,100370.22
2023-02-04T17:57:29.653Z,100371.82
2023-02-04T18:00:36.386Z,100381.80
2023-02-04T18:03:40.663Z,100388.34
2023-02-04T18:06:45.127Z,100395.95
2023-02-04T18:09:49.131Z,100400.13
2023-02-04T18:12:51.769Z,100403.80
2023-02-04T18:15:54.700Z,100409.18
2023-02-04T18:18:56.924Z,100410.34
2023-02-04T18:21:59.733Z,100410.34
2023-02-04T18:25:03.703Z,100416.46
2023-02-04T18:28:05.818Z,100426.08
2023-02-04T18:31:08.873Z,100428.88
2023-02-04T18:34:10.881Z,100432.20
2023-02-04T18:37:39.812Z,100432.92
2023-02-04T18:40:42.733Z,100437.61
2023-02-04T18:43:56.760Z,100436.11
2023-02-04T18:47:00.764Z,100435.73
2023-02-04T18:50:03.992Z,100436.67
2023-02-04T18:53:03.657Z,100438.73
2023-02-04T18:56:12.368Z,100436.45
2023-02-04T18:59:15.013Z,100444.19
2023-02-04T19:05:52.751Z,100445.80
2023-02-04T19:08:57.679Z,100456.30
2023-02-04T19:12:07.771Z,100456.94
2023-02-04T19:15:11.868Z,100457.97
2023-02-04T19:18:21.068Z,100466.68
2023-02-04T19:21:36.229Z,100468.09
2023-02-04T19:24:52.152Z,100466.30
2023-02-04T19:27:53.336Z,100459.02
2023-02-04T19:31:02.925Z,100459.98
2023-02-04T19:34:04.801Z,100463.91
2023-02-04T19:37:07.840Z,100463.63
2023-02-04T19:40:09.849Z,100469.84
2023-02-04T19:43:37.232Z,100474.35
2023-02-04T19:46:40.827Z,100476.14
2023-02-04T19:49:35.835Z,100476.52
2023-02-04T19:52:49.851Z,100475.77
2023-02-04T19:56:05.592Z,100476.91
2023-02-04T19:59:07.933Z,100483.59
2023-02-04T20:02:29.905Z,100482.84
2023-02-04T20:05:35.876Z,100480.27
2023-02-04T20:09:00.175Z,100482.36
2023-02-04T20:12:19.461Z,100484.98
2023-02-04T20:15:26.961Z,100491.48
2023-02-04T20:18:17.941Z,100499.94
2023-02-04T20:21:25.931Z,100496.32
2023-02-04T20:24:30.062Z,100493.40
2023-02-04T20:27:42.360Z,100485.17
2023-02-04T20:30:44.940Z,100484.82
2023-02-04T20:34:01.315Z,100492.56
2023-02-04T20:37:09.074Z,100495.52
2023-02-04T20:40:31.276Z,100499.06
2023-02-04T20:43:47.079Z,100501.86
2023-02-04T20:46:50.032Z,100497.61
2023-02-04T20:50:00.912Z,100502.38
2023-02-04T20:53:05.856Z,100510.91
2023-02-04T20:56:12.928Z,100509.57
2023-02-04T20:59:39.950Z,100511.11
2023-02-04T21:02:42.958Z,100517.07
2023-02-04T21:05:44.986Z,100521.45
2023-02-04T21:08:49.418Z,100520.44
2023-02-04T21:11:51.974Z,100517.59
2023-02-04T21:14:54.005Z,100520.08
2023-02-04T21:17:56.940Z,100519.59
2023-02-04T21:21:02.013Z,100524.63
2023-02-04T21:24:05.047Z,100528.30
2023-02-04T21:27:07.059Z,100530.67
2023-02-04T21:30:09.133Z,100532.70
2023-02-04T21:33:11.030Z,100537.05
2023-02-04T21:36:15.393Z,100540.40
2023-02-04T21:39:16.996Z,100542.14
2023-02-04T21:42:21.195Z,100543.85
2023-02-04T21:45:24.055Z,100546.08
2023-02-04T21:48:27.046Z,100544.27
2023-02-04T21:51:29.143Z,100550.42
2023-02-04T21:54:32.032Z,100544.70
2023-02-04T21:57:35.049Z,100549.59
2023-02-04T22:00:37.079Z,100552.13
2023-02-04T22:03:39.164Z,100548.61
2023-02-04T22:06:36.129Z,100545.77
2023-02-04T22:09:41.079Z,100552.45
2023-02-04T22:12:43.080Z,100555.17
2023-02-04T22:15:46.111Z,100552.83
2023-02-04T22:18:49.071Z,100552.80
2023-02-04T22:21:57.151Z,100550.61
2023-02-04T22:25:01.195Z,100560.17
2023-02-04T22:28:03.574Z,100557.48
2023-02-04T22:31:05.564Z,100557.80
2023-02-04T22:34:07.238Z,100555.70
2023-02-04T22:37:10.120Z,100555.27
2023-02-04T22:40:14.122Z,100553.98
2023-02-04T22:43:16.164Z,100558.20
2023-02-04T22:46:18.234Z,100557.52
2023-02-04T22:49:21.192Z,100553.49
2023-02-04T22:52:23.247Z,100560.71
2023-02-04T22:55:26.524Z,100557.02
2023-02-04T22:58:31.198Z,100552.89
2023-02-04T23:01:35.643Z,100554.50
2023-02-04T23:04:37.164Z,100560.00
2023-02-04T23:07:39.426Z,100563.68
2023-02-04T23:14:01.168Z,100564.11
2023-02-04T23:17:07.124Z,100566.61
2023-02-04T23:20:13.505Z,100565.97
2023-02-04T23:23:25.267Z,100566.97
2023-02-04T23:26:28.409Z,100561.28
2023-02-04T23:29:30.174Z,100559.91
2023-02-04T23:32:34.169Z,100561.25
2023-02-04T23:35:39.072Z,100560.75
2023-02-04T23:38:41.214Z,100563.29
2023-02-04T23:41:43.188Z,100564.80
2023-02-04T23:44:45.212Z,100564.51
2023-02-04T23:47:47.237Z,100568.61
2023-02-04T23:50:49.379Z,100567.52
2023-02-04T23:53:55.235Z,100571.87
2023-02-04T23:56:58.206Z,100575.05
